Time;durP1;ratioP1;P1;durP2;ratioP2;P2;SDS_P1;SDS_P2;PMS_P1;PMS_P2;Temp;Humidity;BMP_temperature;BMP_pressure;BME280_temperature;BME280_humidity;BME280_pressure;Samples;Min_cycle;Max_cycle;Signal;HPM_P1;HPM_P2
2022/12/16 00:00:00;;;;;;;0.80;0.80;;;;;;;-3.16;94.78;95596.19;29373;196;63005;-58
2022/12/16 00:00:32;;;;;;;0.80;0.80;;;;;;;-3.16;94.27;95601.50;29373;283;63009;-57
2022/12/16 00:01:15;;;;;;;0.70;0.70;;;;;;;-3.17;94.23;95594.59;29373;325;63005;-58
2022/12/16 00:01:47;;;;;;;0.70;0.70;;;;;;;-3.21;94.14;95599.56;29371;280;64013;-59
2022/12/16 00:02:18;;;;;;;0.70;0.70;;;;;;;-3.24;93.54;95593.91;29373;280;63017;-56
2022/12/16 00:02:50;;;;;;;0.70;0.70;;;;;;;-3.26;94.11;95601.31;29373;219;63009;-58
2022/12/16 00:03:21;;;;;;;0.70;0.70;;;;;;;-3.29;94.04;95596.47;29373;233;63004;-58
2022/12/16 00:03:55;;;;;;;0.60;0.60;;;;;;;-3.33;93.83;95596.13;29373;226;63009;-59
2022/12/16 00:04:27;;;;;;;0.80;0.80;;;;;;;-3.34;94.25;95599.03;29373;260;63010;-58
2022/12/16 00:04:58;;;;;;;0.70;0.70;;;;;;;-3.34;94.29;95599.03;29373;343;63009;-59
2022/12/16 00:05:31;;;;;;;0.70;0.70;;;;;;;-3.38;94.29;95594.19;29373;263;63005;-58
2022/12/16 00:06:03;;;;;;;0.80;0.80;;;;;;;-3.40;94.15;95598.94;29372;205;64014;-57
2022/12/16 00:06:35;;;;;;;0.70;0.70;;;;;;;-3.40;94.26;95592.81;29373;301;63016;-58
2022/12/16 00:07:06;;;;;;;0.70;0.70;;;;;;;-3.41;94.33;95594.66;29371;247;64013;-58
2022/12/16 00:07:41;;;;;;;0.70;0.70;;;;;;;-3.41;94.81;95594.66;29373;273;63005;-59
2022/12/16 00:08:12;;;;;;;0.80;0.80;;;;;;;-3.40;94.54;95590.97;29373;301;63009;-58
2022/12/16 00:08:43;;;;;;;0.70;0.70;;;;;;;-3.38;94.79;95599.50;29373;254;63004;-59
2022/12/16 00:09:15;;;;;;;0.70;0.70;;;;;;;-3.39;94.84;95592.59;29373;298;63009;-57
2022/12/16 00:09:46;;;;;;;0.70;0.70;;;;;;;-3.39;94.93;95597.06;29373;202;63004;-58
2022/12/16 00:10:18;;;;;;;0.70;0.70;;;;;;;-3.35;94.80;95597.41;29373;245;63009;-59
2022/12/16 00:10:51;;;;;;;0.75;0.75;;;;;;;-3.28;94.78;95592.78;29373;212;63009;-58
2022/12/16 00:11:23;;;;;;;0.90;0.90;;;;;;;-3.26;94.76;95601.31;29371;236;64013;-58
2022/12/16 00:11:55;;;;;;;0.80;0.80;;;;;;;-3.25;94.49;95597.59;29373;294;63004;-59
2022/12/16 00:12:26;;;;;;;0.80;0.80;;;;;;;-3.24;94.34;95599.22;29373;214;63008;-59
2022/12/16 00:12:57;;;;;;;0.75;0.75;;;;;;;-3.23;94.24;95592.88;29373;317;63005;-58
2022/12/16 00:13:30;;;;;;;0.68;0.68;;;;;;;-3.16;94.16;95601.50;29373;304;63009;-59
2022/12/16 00:14:01;;;;;;;1.15;1.15;;;;;;;-3.04;93.61;95602.22;29373;282;63005;-59
2022/12/16 00:14:33;;;;;;;0.70;0.70;;;;;;;-3.07;92.73;95597.38;29373;253;63009;-58
2022/12/16 00:15:05;;;;;;;0.77;0.77;;;;;;;-3.13;92.86;95603.69;29373;216;63005;-58
2022/12/16 00:15:37;;;;;;;0.70;0.70;;;;;;;-3.17;92.51;95594.59;29373;208;63009;-59
2022/12/16 00:16:14;;;;;;;0.95;0.95;;;;;;;-3.24;92.98;95593.91;29373;293;63004;-58
2022/12/16 00:16:46;;;;;;;0.73;0.73;;;;;;;-3.23;93.31;95598.97;29371;196;64013;-59
2022/12/16 00:17:17;;;;;;;14.85;9.75;;;;;;;-3.19;93.34;95601.97;29370;282;65000;-58
2022/12/16 00:17:48;;;;;;;1.45;1.45;;;;;;;-3.15;93.25;95595.16;29373;209;63009;-58
2022/12/16 00:18:20;;;;;;;1.15;1.15;;;;;;;-3.16;93.37;95599.66;29373;311;63004;-58
2022/12/16 00:18:51;;;;;;;1.50;1.50;;;;;;;-3.11;93.15;95594.41;29373;317;63008;-58
2022/12/16 00:19:25;;;;;;;0.80;0.80;;;;;;;-3.14;93.17;95605.53;29373;322;63005;-59
2022/12/16 00:19:56;;;;;;;0.98;0.98;;;;;;;-3.21;92.99;95599.56;29373;319;63009;-58
2022/12/16 00:20:28;;;;;;;1.35;1.35;;;;;;;-3.22;93.27;95600.59;29373;199;63005;-59
2022/12/16 00:21:00;;;;;;;0.80;0.80;;;;;;;-3.23;93.07;95600.84;29373;264;63009;-59
2022/12/16 00:21:31;;;;;;;0.68;0.68;;;;;;;-3.25;93.39;95602.91;29373;246;63005;-59
2022/12/16 00:22:02;;;;;;;0.88;0.88;;;;;;;-3.28;93.18;95609.50;29371;330;64007;-58
2022/12/16 00:22:33;;;;;;;0.70;0.70;;;;;;;-3.30;93.62;95600.97;29373;215;63005;-58
2022/12/16 00:23:05;;;;;;;0.70;0.70;;;;;;;-3.33;93.41;95600.63;29371;245;64013;-58
2022/12/16 00:23:38;;;;;;;0.80;0.80;;;;;;;-3.34;93.76;95594.53;29371;291;64009;-56
2022/12/16 00:24:09;;;;;;;0.70;0.70;;;;;;;-3.35;93.67;95606.19;29373;244;63009;-58
2022/12/16 00:24:40;;;;;;;0.70;0.70;;;;;;;-3.39;93.66;95603.19;29373;258;63004;-58
2022/12/16 00:25:12;;;;;;;0.70;0.70;;;;;;;-3.40;93.74;95590.97;29373;256;63009;-59
2022/12/16 00:25:44;;;;;;;25.05;20.98;;;;;;;-3.40;94.05;95593.63;29363;198;65004;-56
2022/12/16 00:26:16;;;;;;;0.73;0.73;;;;;;;-3.39;94.05;95597.88;29373;235;63008;-60
2022/12/16 00:26:47;;;;;;;0.77;0.77;;;;;;;-3.40;94.41;95588.31;29373;203;63005;-58
2022/12/16 00:27:19;;;;;;;0.70;0.70;;;;;;;-3.41;94.21;95588.56;29371;204;64014;-58
2022/12/16 00:27:50;;;;;;;0.70;0.70;;;;;;;-3.45;94.29;95598.03;29373;273;63005;-58
2022/12/16 00:28:22;;;;;;;0.70;0.70;;;;;;;-3.49;94.29;95596.91;29373;243;63009;-58
2022/12/16 00:28:53;;;;;;;0.70;0.70;;;;;;;-3.49;94.28;95591.59;29373;387;63005;-59
2022/12/16 00:29:24;;;;;;;0.62;0.62;;;;;;;-3.50;94.63;95592.66;29371;302;64013;-58
2022/12/16 00:29:56;;;;;;;0.80;0.80;;;;;;;-3.50;94.60;95592.66;29373;210;63005;-58
2022/12/16 00:30:27;;;;;;;0.70;0.70;;;;;;;-3.48;94.94;95588.72;29373;309;63009;-56
2022/12/16 00:31:01;;;;;;;0.70;0.70;;;;;;;-3.45;94.99;95593.53;29373;306;63004;-57
2022/12/16 00:31:33;;;;;;;0.70;0.70;;;;;;;-3.41;95.20;95594.66;29373;221;63009;-58
2022/12/16 00:32:05;;;;;;;0.70;0.70;;;;;;;-3.36;95.15;95593.97;29373;249;63004;-58
2022/12/16 00:32:38;;;;;;;0.70;0.70;;;;;;;-3.32;94.78;95592.44;29373;265;63009;-56
2022/12/16 00:33:09;;;;;;;0.70;0.70;;;;;;;-3.25;94.73;95597.59;29373;358;63004;-58
2022/12/16 00:33:41;;;;;;;1.00;1.00;;;;;;;-3.29;94.22;95596.47;29373;230;63008;-60
2022/12/16 00:34:12;;;;;;;0.70;0.70;;;;;;;-3.33;94.00;95596.13;29371;226;64008;-59
2022/12/16 00:34:44;;;;;;;0.70;0.70;;;;;;;-3.39;94.11;95592.59;29371;236;64014;-58
2022/12/16 00:35:15;;;;;;;0.80;0.80;;;;;;;-3.44;94.12;95589.81;29373;229;63005;-57
2022/12/16 00:35:47;;;;;;;0.70;0.70;;;;;;;-3.46;94.07;95591.09;29373;222;63009;-56
2022/12/16 00:36:18;;;;;;;0.80;0.80;;;;;;;-3.46;94.36;95591.91;29373;202;63005;-58
2022/12/16 00:36:50;;;;;;;0.70;0.70;;;;;;;-3.39;94.47;95592.59;29373;198;63009;-56
2022/12/16 00:37:22;;;;;;;1.30;1.20;;;;;;;-3.26;94.68;95596.00;29373;209;63005;-58
2022/12/16 00:37:56;;;;;;;0.77;0.77;;;;;;;-3.22;93.88;95591.84;29373;202;63009;-59
2022/12/16 00:38:28;;;;;;;1.12;1.12;;;;;;;-3.20;93.94;95595.06;29373;209;63005;-59
2022/12/16 00:39:00;;;;;;;0.70;0.70;;;;;;;-3.18;93.59;95600.94;29373;333;63009;-59
2022/12/16 00:39:32;;;;;;;0.98;0.98;;;;;;;-3.18;93.70;95595.63;29373;208;63004;-57
2022/12/16 00:40:05;;;;;;;3.22;3.10;;;;;;;-3.14;93.72;95604.72;29371;275;64013;-59
2022/12/16 00:40:36;;;;;;;0.70;0.70;;;;;;;-3.13;93.48;95603.69;29373;222;63004;-60
2022/12/16 00:41:08;;;;;;;1.17;1.17;;;;;;;-3.13;93.13;95601.03;29373;214;63008;-60
2022/12/16 00:41:39;;;;;;;0.80;0.80;;;;;;;-3.14;93.17;95597.56;29373;249;63004;-56
2022/12/16 00:42:12;;;;;;;1.08;1.08;;;;;;;-3.17;93.08;95600.69;29373;199;63009;-59
2022/12/16 00:42:43;;;;;;;0.80;0.80;;;;;;;-3.21;93.20;95598.75;29373;304;63005;-58
2022/12/16 00:43:15;;;;;;;0.70;0.70;;;;;;;-3.27;92.95;95599.69;29373;311;63009;-59
2022/12/16 00:44:55;;;;;;;0.80;0.80;;;;;;;-3.32;93.69;95602.25;88174;215;64005;-59
2022/12/16 00:45:26;;;;;;;1.95;1.85;;;;;;;-3.31;94.13;95599.34;29394;328;64008;-60
2022/12/16 00:45:57;;;;;;;0.80;0.80;;;;;;;-3.26;94.00;95602.09;29373;255;63005;-60
2022/12/16 00:46:29;;;;;;;0.80;0.80;;;;;;;-3.23;93.59;95606.13;29371;241;64014;-59
2022/12/16 00:47:00;;;;;;;0.80;0.80;;;;;;;-3.24;93.69;95604.53;29373;320;63005;-58
2022/12/16 00:47:31;;;;;;;1.80;1.77;;;;;;;-3.24;93.47;95604.53;29373;266;63017;-59
2022/12/16 00:48:04;;;;;;;1.00;1.00;;;;;;;-3.25;93.53;95603.72;29373;277;63005;-60
2022/12/16 00:48:36;;;;;;;1.17;1.17;;;;;;;-3.25;93.71;95597.59;29371;322;64013;-59
2022/12/16 00:49:07;;;;;;;0.90;0.90;;;;;;;-3.27;93.69;95610.31;29373;347;63005;-58
2022/12/16 00:49:38;;;;;;;0.90;0.90;;;;;;;-3.23;93.49;95606.13;29373;281;63017;-59
2022/12/16 00:50:10;;;;;;;3.10;3.00;;;;;;;-3.24;93.54;95607.19;29373;295;63009;-59
2022/12/16 00:50:48;;;;;;;0.85;0.85;;;;;;;-3.27;93.58;95605.81;29373;206;63009;-59
2022/12/16 00:51:19;;;;;;;0.85;0.85;;;;;;;-3.24;93.74;95601.88;29371;197;64009;-58
2022/12/16 00:51:50;;;;;;;0.80;0.80;;;;;;;-3.25;93.48;95609.03;29373;199;63009;-59
2022/12/16 00:52:22;;;;;;;1.10;1.10;;;;;;;-3.28;93.58;95608.69;29373;257;63004;-60
2022/12/16 00:52:53;;;;;;;0.70;0.70;;;;;;;-3.33;93.34;95605.94;29373;212;63008;-58
2022/12/16 00:53:24;;;;;;;0.70;0.70;;;;;;;-3.38;93.68;95610.09;29373;370;63004;-57
2022/12/16 00:53:57;;;;;;;7.57;7.22;;;;;;;-3.41;93.79;95605.28;29371;310;65005;-57
2022/12/16 00:54:28;;;;;;;0.70;0.70;;;;;;;-3.44;93.97;95608.41;29373;302;63005;-57
2022/12/16 00:54:59;;;;;;;0.70;0.70;;;;;;;-3.46;93.75;95602.53;29373;328;63009;-58
2022/12/16 00:55:31;;;;;;;0.80;0.80;;;;;;;-3.47;94.13;95602.78;29373;216;63005;-60
2022/12/16 00:56:08;;;;;;;0.70;0.70;;;;;;;-3.49;94.10;95610.16;29373;349;63009;-59
2022/12/16 00:56:40;;;;;;;0.77;0.77;;;;;;;-3.51;94.11;95607.75;29371;206;64009;-59
2022/12/16 00:57:11;;;;;;;0.70;0.70;;;;;;;-3.53;94.46;95606.38;29373;197;63009;-58
2022/12/16 00:57:43;;;;;;;0.77;0.77;;;;;;;-3.53;94.44;95612.47;29373;233;63004;-56
2022/12/16 00:58:15;;;;;;;0.80;0.80;;;;;;;-3.46;94.74;95609.66;29373;203;63009;-60
2022/12/16 00:58:47;;;;;;;0.90;0.90;;;;;;;-3.45;94.85;95614.72;29373;357;63004;-59
2022/12/16 00:59:21;;;;;;;1.27;1.27;;;;;;;-3.39;94.91;95613.00;29373;381;63017;-58
2022/12/16 00:59:53;;;;;;;0.80;0.80;;;;;;;-3.39;94.65;95607.69;29373;196;63004;-59
2022/12/16 01:00:27;;;;;;;0.70;0.70;;;;;;;-3.41;94.59;95605.28;29373;274;63008;-58
2022/12/16 01:00:59;;;;;;;0.80;0.80;;;;;;;-3.41;94.82;95613.22;29373;196;63004;-58
2022/12/16 01:01:31;;;;;;;0.70;0.70;;;;;;;-3.45;94.78;95604.13;29373;335;63009;-59
2022/12/16 01:02:02;;;;;;;0.80;0.80;;;;;;;-3.46;94.89;95615.78;29371;233;64009;-57
2022/12/16 01:02:33;;;;;;;0.80;0.80;;;;;;;-3.48;94.76;95615.22;29373;199;63009;-59
2022/12/16 01:03:05;;;;;;;0.80;0.80;;;;;;;-3.43;95.11;95615.31;29373;206;63005;-59
2022/12/16 01:03:37;;;;;;;0.85;0.85;;;;;;;-3.35;95.06;95615.97;29373;279;63009;-58
2022/12/16 01:04:09;;;;;;;0.80;0.80;;;;;;;-3.40;94.83;95614.84;29373;209;63005;-59
2022/12/16 01:04:40;;;;;;;0.70;0.70;;;;;;;-3.28;94.33;95619.31;29373;221;63009;-58
2022/12/16 01:05:13;;;;;;;0.80;0.80;;;;;;;-3.32;94.33;95626.13;29372;312;63003;-58
2022/12/16 01:05:48;;;;;;;0.80;0.80;;;;;;;-3.39;93.95;95624.41;29373;262;63009;-59
2022/12/16 01:06:19;;;;;;;0.70;0.70;;;;;;;-3.45;94.26;95619.22;29373;227;63004;-58
2022/12/16 01:06:50;;;;;;;1.87;1.77;;;;;;;-3.47;94.05;95627.44;29373;291;63009;-58
2022/12/16 01:07:22;;;;;;;0.70;0.70;;;;;;;-3.49;94.18;95624.22;29371;202;64009;-57
2022/12/16 01:07:55;;;;;;;1.00;1.00;;;;;;;-3.49;94.62;95624.22;29373;196;63008;-55
2022/12/16 01:08:27;;;;;;;0.70;0.70;;;;;;;-3.50;94.70;95619.97;29373;197;63004;-59
2022/12/16 01:08:59;;;;;;;0.70;0.70;;;;;;;-3.51;94.90;95621.00;29373;288;63009;-60
2022/12/16 01:09:30;;;;;;;1.33;1.33;;;;;;;-3.50;95.15;95622.62;29373;197;63005;-58
2022/12/16 01:10:03;;;;;;;5.37;1.83;;;;;;;-3.40;95.17;95622.00;29373;197;63009;-59
2022/12/16 01:10:35;;;;;;;1.55;1.45;;;;;;;-3.31;94.91;95630.38;29373;203;63005;-56
2022/12/16 01:11:09;;;;;;;0.80;0.80;;;;;;;-3.31;94.72;95625.87;29373;216;63009;-58
2022/12/16 01:11:40;;;;;;;0.73;0.73;;;;;;;-3.33;94.49;95622.66;29373;247;63005;-58
2022/12/16 01:12:11;;;;;;;0.77;0.77;;;;;;;-3.37;94.55;95622.31;29373;254;63009;-60
2022/12/16 01:12:43;;;;;;;0.80;0.80;;;;;;;-3.37;94.85;95622.31;29371;214;64009;-59
2022/12/16 01:13:14;;;;;;;3.53;3.33;;;;;;;-3.35;94.90;95631.91;29371;198;64013;-59
2022/12/16 01:13:50;;;;;;;0.80;0.80;;;;;;;-3.41;94.40;95626.50;29372;204;64004;-58
2022/12/16 01:14:22;;;;;;;0.70;0.70;;;;;;;-3.48;94.66;95625.84;29373;235;63009;-58
2022/12/16 01:14:53;;;;;;;0.75;0.75;;;;;;;-3.48;94.63;95631.16;29373;202;63004;-59
2022/12/16 01:15:24;;;;;;;1.00;1.00;;;;;;;-3.47;95.07;95627.44;29373;225;63012;-59
2022/12/16 01:16:00;;;;;;;0.70;0.70;;;;;;;-3.43;95.08;95628.56;29373;218;63004;-59
2022/12/16 01:16:33;;;;;;;0.70;0.70;;;;;;;-3.40;95.16;95627.28;29371;232;64014;-59
2022/12/16 01:17:05;;;;;;;0.70;0.70;;;;;;;-3.41;95.29;95630.97;29373;206;63009;-57
2022/12/16 01:17:36;;;;;;;0.80;0.80;;;;;;;-3.40;95.31;95630.75;29373;236;63009;-62
2022/12/16 01:18:07;;;;;;;1.10;1.10;;;;;;;-3.41;95.13;95629.12;29373;212;63005;-56
2022/12/16 01:18:39;;;;;;;0.70;0.70;;;;;;;-3.43;95.32;95633.87;29373;227;63009;-56
2022/12/16 01:19:10;;;;;;;0.70;0.70;;;;;;;-3.44;95.18;95632.25;29373;197;63005;-59
2022/12/16 01:19:41;;;;;;;0.85;0.85;;;;;;;-3.45;95.42;95635.94;29373;301;63009;-59
2022/12/16 01:20:13;;;;;;;0.80;0.80;;;;;;;-3.48;95.25;95631.16;29373;203;63004;-59
2022/12/16 01:20:44;;;;;;;0.80;0.80;;;;;;;-3.47;95.37;95638.06;29373;345;63009;-59
2022/12/16 01:21:15;;;;;;;0.80;0.80;;;;;;;-3.43;95.81;95638.38;29371;307;64009;-59
2022/12/16 01:21:47;;;;;;;0.60;0.60;;;;;;;-3.42;95.73;95635.47;29373;202;63009;-59
2022/12/16 01:22:19;;;;;;;0.80;0.80;;;;;;;-3.42;95.50;95632.84;29373;220;63004;-58
2022/12/16 01:22:50;;;;;;;0.75;0.75;;;;;;;-3.43;95.62;95633.06;29373;325;63009;-59
2022/12/16 01:23:21;;;;;;;0.80;0.80;;;;;;;-3.45;95.37;95633.31;29373;203;63005;-60
2022/12/16 01:23:52;;;;;;;0.80;0.80;;;;;;;-3.46;95.73;95623.72;29373;208;63021;-59
2022/12/16 01:24:24;;;;;;;0.70;0.70;;;;;;;-3.47;95.73;95638.06;29373;317;63005;-59
2022/12/16 01:24:55;;;;;;;21.08;8.23;;;;;;;-3.49;95.57;95632.19;29367;293;65005;-59
2022/12/16 01:25:26;;;;;;;0.80;0.80;;;;;;;-3.38;95.93;95631.31;29371;203;64009;-59
2022/12/16 01:25:59;;;;;;;0.70;0.70;;;;;;;-3.34;95.28;95631.66;29373;293;63005;-60
2022/12/16 01:26:31;;;;;;;1.05;1.05;;;;;;;-3.35;95.08;95635.34;29373;232;63005;-59
2022/12/16 01:27:02;;;;;;;0.80;0.80;;;;;;;-3.35;95.05;95634.53;29371;221;64013;-59
2022/12/16 01:27:34;;;;;;;0.93;0.93;;;;;;;-3.35;95.03;95639.84;29373;342;63000;-58
2022/12/16 01:28:05;;;;;;;1.35;1.35;;;;;;;-3.40;95.26;95635.25;29373;213;63009;-59
2022/12/16 01:28:36;;;;;;;0.80;0.80;;;;;;;-3.43;95.08;95631.22;29373;198;63004;-59
2022/12/16 01:29:07;;;;;;;0.70;0.70;;;;;;;-3.48;95.31;95635.66;29373;311;63009;-56
2022/12/16 01:29:39;;;;;;;0.80;0.80;;;;;;;-3.50;95.21;95635.06;29373;198;63004;-59
2022/12/16 01:30:12;;;;;;;0.60;0.60;;;;;;;-3.52;95.57;95635.31;29373;273;63008;-59
2022/12/16 01:30:45;;;;;;;0.70;0.70;;;;;;;-3.50;95.57;95633.22;29373;282;63010;-59
2022/12/16 01:31:20;;;;;;;0.98;0.98;;;;;;;-3.35;95.71;95645.16;29371;209;64014;-60
2022/12/16 01:31:55;;;;;;;0.90;0.90;;;;;;;-3.31;95.45;95641.00;29373;221;63005;-55
2022/12/16 01:32:26;;;;;;;0.60;0.60;;;;;;;-3.33;95.40;95645.72;29371;197;64013;-60
2022/12/16 01:32:57;;;;;;;0.90;0.90;;;;;;;-3.34;95.17;95649.41;29373;261;63005;-60
2022/12/16 01:33:31;;;;;;;1.15;1.15;;;;;;;-3.41;95.22;95642.41;29373;367;63009;-59
2022/12/16 01:34:03;;;;;;;0.70;0.70;;;;;;;-3.45;95.02;95640.44;29373;249;63005;-60
2022/12/16 01:34:34;;;;;;;0.65;0.65;;;;;;;-3.40;95.45;95645.84;29373;202;63021;-58
2022/12/16 01:35:06;;;;;;;1.50;1.40;;;;;;;-3.38;95.15;95646.44;29372;209;64004;-59
2022/12/16 01:35:38;;;;;;;0.75;0.75;;;;;;;-3.39;95.22;95640.31;29371;242;64013;-59
2022/12/16 01:36:09;;;;;;;0.70;0.70;;;;;;;-3.44;95.15;95642.88;29371;204;64009;-59
2022/12/16 01:36:40;;;;;;;0.80;0.80;;;;;;;-3.48;94.99;95640.94;29373;238;63009;-59
2022/12/16 01:37:12;;;;;;;1.48;1.15;;;;;;;-3.47;95.19;95638.06;29371;239;64008;-59
2022/12/16 01:37:44;;;;;;;3.33;3.10;;;;;;;-3.36;95.63;95644.34;29371;212;64013;-60
2022/12/16 01:38:15;;;;;;;0.90;0.90;;;;;;;-3.24;94.91;95641.66;29373;241;63005;-60
2022/12/16 01:38:47;;;;;;;2.00;1.98;;;;;;;-3.20;94.62;95640.16;29373;363;63009;-59
2022/12/16 01:39:18;;;;;;;0.90;0.90;;;;;;;-3.24;94.14;95639.81;29372;357;64005;-59
2022/12/16 01:39:50;;;;;;;2.40;2.00;;;;;;;-3.27;94.11;95637.62;29373;198;63009;-59
2022/12/16 01:40:24;;;;;;;0.73;0.73;;;;;;;-3.31;94.19;95641.81;29373;209;63005;-59
2022/12/16 01:40:55;;;;;;;0.70;0.70;;;;;;;-3.27;94.37;95642.13;29373;196;63023;-59
2022/12/16 01:41:26;;;;;;;1.62;1.62;;;;;;;-3.24;94.20;95645.12;29373;196;63005;-60
2022/12/16 01:41:58;;;;;;;0.80;0.80;;;;;;;-3.22;94.20;95644.88;29371;196;64013;-59
2022/12/16 01:42:32;;;;;;;0.88;0.88;;;;;;;-3.26;94.16;95643.75;29373;222;63004;-58
2022/12/16 01:43:11;;;;;;;0.70;0.70;;;;;;;-3.33;94.10;95645.72;29371;318;64013;-58
2022/12/16 01:43:46;;;;;;;0.80;0.80;;;;;;;-3.40;93.97;95649.31;29373;264;63004;-60
2022/12/16 01:44:21;;;;;;;0.80;0.80;;;;;;;-3.44;94.05;95648.16;29373;203;63009;-56
2022/12/16 01:44:53;;;;;;;0.70;0.70;;;;;;;-3.47;94.32;95653.97;29373;197;63004;-59
2022/12/16 01:45:33;;;;;;;0.70;0.70;;;;;;;-3.47;94.60;95659.28;29373;278;63008;-59
2022/12/16 01:46:33;;;;;;;0.80;0.80;;;;;;;-3.52;95.08;95656.53;29355;205;125005;-59
2022/12/16 01:47:05;;;;;;;0.80;0.80;;;;;;;-3.43;95.51;95660.38;29373;228;63009;-59
2022/12/16 01:47:38;;;;;;;0.80;0.80;;;;;;;-3.42;95.21;95653.25;29373;222;63005;-57
2022/12/16 01:48:40;;;;;;;0.80;0.80;;;;;;;-3.46;94.73;95660.84;29371;237;64013;-59
2022/12/16 01:49:25;;;;;;;0.80;0.80;;;;;;;-3.52;95.21;95661.81;29395;214;63005;-59
2022/12/16 01:50:10;;;;;;;0.70;0.70;;;;;;;-3.54;95.37;95663.91;29395;208;63009;-59
2022/12/16 01:50:42;;;;;;;2.65;1.33;;;;;;;-3.48;95.42;95662.16;29373;202;63004;-60
2022/12/16 01:51:43;;;;;;;0.80;0.80;;;;;;;-3.43;95.83;95659.59;29373;290;63009;-58
2022/12/16 01:52:22;;;;;;;0.70;0.70;;;;;;;-3.50;95.00;95659.75;29371;198;64008;-59
2022/12/16 01:52:59;;;;;;;0.75;0.75;;;;;;;-3.55;95.18;95662.28;29373;351;63008;-59
2022/12/16 01:53:30;;;;;;;0.70;0.70;;;;;;;-3.61;95.09;95660.56;29373;349;63005;-57
2022/12/16 01:54:11;;;;;;;0.70;0.70;;;;;;;-3.62;95.49;95661.59;29373;202;63009;-59
2022/12/16 01:54:47;;;;;;;0.75;0.75;;;;;;;-3.64;95.66;95658.38;29393;378;64009;-59
2022/12/16 01:55:23;;;;;;;0.80;0.80;;;;;;;-3.65;95.71;95662.06;29395;286;63009;-59
2022/12/16 01:55:58;;;;;;;0.70;0.70;;;;;;;-3.64;95.80;95668.97;29373;207;63005;-59
2022/12/16 01:56:32;;;;;;;0.82;0.82;;;;;;;-3.55;96.17;95666.78;29371;219;64013;-59
2022/12/16 01:57:08;;;;;;;0.80;0.80;;;;;;;-3.53;96.20;95672.66;29373;197;63005;-60
2022/12/16 01:57:47;;;;;;;0.70;0.70;;;;;;;-3.47;95.85;95672.53;29371;216;64013;-59
2022/12/16 01:58:25;;;;;;;0.80;0.80;;;;;;;-3.43;95.71;95668.34;29373;272;63004;-59
2022/12/16 01:59:01;;;;;;;1.17;1.17;;;;;;;-3.34;95.04;95679.41;29373;221;63009;-60
2022/12/16 01:59:34;;;;;;;0.80;0.80;;;;;;;-3.29;94.20;95668.91;29373;202;63004;-59
2022/12/16 02:00:09;;;;;;;0.80;0.80;;;;;;;-3.32;93.91;95672.00;29371;217;64013;-59
2022/12/16 02:00:43;;;;;;;6.43;6.18;;;;;;;-3.38;93.76;95676.41;29373;212;63005;-60
2022/12/16 02:01:15;;;;;;;1.02;1.02;;;;;;;-3.35;94.16;95676.97;29373;380;63009;-59
2022/12/16 02:01:47;;;;;;;1.00;1.00;;;;;;;-3.32;93.97;95668.56;29373;228;63005;-60
2022/12/16 02:02:19;;;;;;;0.90;0.90;;;;;;;-3.35;93.87;95671.69;29373;239;63018;-56
2022/12/16 02:02:52;;;;;;;1.10;1.10;;;;;;;-3.33;94.11;95674.91;29373;198;63005;-58
2022/12/16 02:03:25;;;;;;;1.10;1.10;;;;;;;-3.31;93.83;95672.81;29373;381;63009;-58
2022/12/16 02:04:00;;;;;;;0.77;0.77;;;;;;;-3.39;93.35;95677.44;29373;249;63005;-58
2022/12/16 02:04:31;;;;;;;2.30;2.22;;;;;;;-3.45;93.40;95678.38;29373;308;63009;-59
2022/12/16 02:05:21;;;;;;;0.80;0.80;;;;;;;-3.43;93.68;95673.66;29372;268;64004;-60
2022/12/16 02:05:54;;;;;;;4.05;2.58;;;;;;;-3.39;93.53;95677.44;29371;206;64013;-58
2022/12/16 02:06:27;;;;;;;1.58;1.55;;;;;;;-3.31;93.62;95668.31;29373;202;63004;-59
2022/12/16 02:07:01;;;;;;;0.75;0.75;;;;;;;-3.30;93.11;95674.44;29373;298;63009;-59
2022/12/16 02:07:35;;;;;;;1.25;1.25;;;;;;;-3.36;92.77;95676.19;29373;205;63004;-59
2022/12/16 02:08:15;;;;;;;0.80;0.80;;;;;;;-3.46;93.03;95674.13;29373;254;63020;-59
2022/12/16 02:08:52;;;;;;;0.80;0.80;;;;;;;-3.47;93.31;95679.69;29373;278;63005;-59
2022/12/16 02:09:24;;;;;;;0.80;0.80;;;;;;;-3.49;93.47;95681.75;29373;325;63009;-59
2022/12/16 02:09:56;;;;;;;0.70;0.70;;;;;;;-3.55;93.24;95672.88;29373;220;63005;-59
2022/12/16 02:11:11;;;;;;;0.82;0.82;;;;;;;-3.57;93.98;95676.81;29371;276;64013;-60
2022/12/16 02:12:28;;;;;;;1.00;1.00;;;;;;;-3.58;94.47;95688.47;29373;279;63005;-58
2022/12/16 02:13:25;;;;;;;0.70;0.70;;;;;;;-3.62;94.30;95682.00;29373;218;63024;-59
2022/12/16 02:14:22;;;;;;;0.73;0.73;;;;;;;-3.52;95.00;95683.03;29373;207;63011;-59
2022/12/16 02:15:25;;;;;;;0.80;0.80;;;;;;;-3.47;94.51;95685.00;29373;190;63008;-58
2022/12/16 02:16:47;;;;;;;0.80;0.80;;;;;;;-3.56;94.27;95681.88;29371;255;64009;-57
2022/12/16 02:17:53;;;;;;;0.80;0.80;;;;;;;-3.61;94.16;95683.62;29395;232;63009;-59
2022/12/16 02:19:10;;;;;;;0.70;0.70;;;;;;;-3.63;94.62;95685.69;29395;222;63000;-57
2022/12/16 02:20:19;;;;;;;0.85;0.85;;;;;;;-3.61;94.86;95680.97;29371;237;64013;-60
2022/12/16 02:21:45;;;;;;;0.70;0.70;;;;;;;-3.59;94.87;95684.19;29373;225;63004;-60
2022/12/16 02:22:53;;;;;;;0.70;0.70;;;;;;;-3.63;94.82;95691.81;29373;211;63008;-58
2022/12/16 02:24:00;;;;;;;0.70;0.70;;;;;;;-3.58;95.28;95688.47;29373;218;63005;-59
2022/12/16 02:25:19;;;;;;;0.80;0.80;;;;;;;-3.61;94.88;95684.44;29372;198;63026;-59
2022/12/16 02:26:18;;;;;;;0.80;0.80;;;;;;;-3.65;94.99;95685.94;29371;368;64009;-59
2022/12/16 02:27:32;;;;;;;1.05;1.05;;;;;;;-3.61;95.19;95684.44;29373;202;63009;-59
2022/12/16 02:28:51;;;;;;;0.75;0.75;;;;;;;-3.59;95.27;95677.03;29373;209;63004;-59
2022/12/16 02:30:05;;;;;;;0.80;0.80;;;;;;;-3.65;94.91;95677.16;29373;249;63008;-59
2022/12/16 02:31:15;;;;;;;0.80;0.80;;;;;;;-3.63;95.03;95681.19;29373;275;63005;-58
2022/12/16 02:32:24;;;;;;;0.80;0.80;;;;;;;-3.58;95.08;95670.72;29371;222;64009;-58
2022/12/16 02:34:02;;;;;;;0.80;0.80;;;;;;;-3.48;95.17;95684.19;29373;334;63009;-58
2022/12/16 02:35:11;;;;;;;2.08;1.98;;;;;;;-3.42;94.21;95672.59;29373;309;63004;-59
2022/12/16 02:36:10;;;;;;;1.60;1.60;;;;;;;-3.42;94.34;95672.59;29373;301;63017;-59
2022/12/16 02:37:05;;;;;;;9.82;2.65;;;;;;;-3.39;94.40;95682.75;29370;210;64004;-60
2022/12/16 02:38:14;;;;;;;1.00;1.00;;;;;;;-3.46;94.09;95679.41;29371;399;64014;-59
2022/12/16 02:39:05;;;;;;;0.80;0.80;;;;;;;-3.42;94.18;95677.91;29373;207;63005;-59
2022/12/16 02:39:41;;;;;;;4.90;4.50;;;;;;;-3.38;94.37;95684.38;29373;228;63009;-58
2022/12/16 02:40:37;;;;;;;2.47;2.08;;;;;;;-3.32;93.68;95681.81;29373;287;63005;-59
2022/12/16 02:41:23;;;;;;;0.90;0.90;;;;;;;-3.40;93.94;95681.13;29373;396;63009;-59
2022/12/16 02:42:30;;;;;;;1.30;1.30;;;;;;;-3.34;94.16;95681.25;29373;222;63006;-59
2022/12/16 02:43:16;;;;;;;0.70;0.70;;;;;;;-3.42;93.86;95683.22;29371;230;64013;-59
2022/12/16 02:44:02;;;;;;;0.80;0.80;;;;;;;-3.51;93.55;95678.53;29373;233;63007;-58
2022/12/16 02:45:11;;;;;;;0.90;0.90;;;;;;;-3.54;94.51;95684.31;29373;223;63008;-59
2022/12/16 02:45:44;;;;;;;0.80;0.80;;;;;;;-3.50;94.76;95680.97;29373;210;63005;-58
2022/12/16 02:46:18;;;;;;;1.20;1.20;;;;;;;-3.46;94.48;95682.06;29373;251;63009;-60
2022/12/16 02:46:54;;;;;;;0.80;0.80;;;;;;;-3.41;94.60;95689.31;29372;212;63009;-58
2022/12/16 02:47:26;;;;;;;0.85;0.85;;;;;;;-3.43;94.44;95686.91;29373;297;63009;-59
2022/12/16 02:47:58;;;;;;;0.80;0.80;;;;;;;-3.45;94.46;95689.00;29373;239;63005;-58
2022/12/16 02:48:29;;;;;;;0.80;0.80;;;;;;;-3.52;94.37;95688.34;29373;281;63009;-58
2022/12/16 02:49:42;;;;;;;0.80;0.80;;;;;;;-3.56;94.37;95692.50;29373;309;63005;-60
2022/12/16 02:50:48;;;;;;;1.85;1.77;;;;;;;-3.64;95.12;95690.19;29373;221;63009;-58
2022/12/16 02:51:22;;;;;;;0.80;0.80;;;;;;;-3.52;95.32;95685.69;29373;279;63004;-58
2022/12/16 02:51:56;;;;;;;0.82;0.82;;;;;;;-3.48;95.47;95700.09;29371;219;64013;-59
2022/12/16 02:52:31;;;;;;;1.25;1.25;;;;;;;-3.47;95.45;95695.59;29373;360;63004;-58
2022/12/16 02:53:05;;;;;;;0.80;0.80;;;;;;;-3.51;95.24;95692.59;29371;218;64014;-58
2022/12/16 02:53:39;;;;;;;0.70;0.70;;;;;;;-3.53;95.23;95692.03;29373;203;63005;-60
2022/12/16 02:54:13;;;;;;;0.70;0.70;;;;;;;-3.59;95.19;95687.66;29371;210;64014;-58
2022/12/16 02:54:46;;;;;;;0.80;0.80;;;;;;;-3.59;95.28;95697.44;29373;213;63005;-58
2022/12/16 02:55:19;;;;;;;1.98;1.90;;;;;;;-3.52;95.45;95698.94;29373;208;63009;-59
2022/12/16 02:56:43;;;;;;;0.80;0.80;;;;;;;-3.41;95.28;95694.63;29373;311;63005;-59
2022/12/16 02:57:58;;;;;;;0.73;0.73;;;;;;;-3.39;95.01;95698.66;29373;282;63009;-58
2022/12/16 02:59:07;;;;;;;0.80;0.80;;;;;;;-3.33;94.46;95704.88;29373;342;63004;-58